createdAt,value
2018-07-27T00:01:16.782Z,99932.27
2018-07-27T00:03:45.890Z,99935.84
2018-07-27T00:06:13.031Z,99936.30
2018-07-27T00:08:40.140Z,99933.66
2018-07-27T00:11:07.204Z,99929.59
2018-07-27T00:13:34.296Z,99929.66
2018-07-27T00:16:04.248Z,99927.16
2018-07-27T00:18:37.566Z,99933.86
2018-07-27T00:21:09.235Z,99930.97
2018-07-27T00:23:38.256Z,99926.33
2018-07-27T00:26:05.330Z,99929.16
2018-07-27T00:28:32.404Z,99932.80
2018-07-27T00:31:00.520Z,99934.50
2018-07-27T00:33:27.624Z,99942.47
2018-07-27T00:35:54.784Z,99951.40
2018-07-27T00:38:22.807Z,99941.78
2018-07-27T00:40:50.014Z,99939.12
2018-07-27T00:43:17.143Z,99939.82
2018-07-27T00:45:44.666Z,99947.13
2018-07-27T00:48:16.806Z,99944.62
2018-07-27T00:50:43.993Z,99945.16
2018-07-27T00:53:11.112Z,99950.14
2018-07-27T00:55:38.245Z,99941.20
2018-07-27T00:58:08.536Z,99936.36
2018-07-27T01:00:36.223Z,99941.63
2018-07-27T01:03:05.409Z,99938.98
2018-07-27T01:05:36.600Z,99936.20
2018-07-27T01:08:05.520Z,99932.14
2018-07-27T01:10:33.158Z,99929.73
2018-07-27T01:13:02.251Z,99935.45
2018-07-27T01:15:30.676Z,99934.95
2018-07-27T01:18:03.928Z,99935.88
2018-07-27T01:20:34.927Z,99933.53
2018-07-27T01:23:02.027Z,99935.05
2018-07-27T01:25:29.101Z,99925.68
2018-07-27T01:27:57.239Z,99920.36
2018-07-27T01:30:24.369Z,99919.52
2018-07-27T01:32:51.469Z,99923.05
2018-07-27T01:35:18.513Z,99922.33
2018-07-27T01:37:45.604Z,99918.47
2018-07-27T01:40:13.354Z,99919.18
2018-07-27T01:42:40.437Z,99924.81
2018-07-27T01:45:07.529Z,99926.91
2018-07-27T01:47:35.428Z,99920.42
2018-07-27T01:50:02.544Z,99930.28
2018-07-27T01:52:30.390Z,99926.97
2018-07-27T01:54:57.481Z,99929.72
2018-07-27T01:57:24.515Z,99930.48
2018-07-27T01:59:52.543Z,99926.38
2018-07-27T02:02:19.705Z,99922.19
2018-07-27T02:04:46.774Z,99922.48
2018-07-27T02:07:15.977Z,99924.84
2018-07-27T02:09:43.126Z,99918.64
2018-07-27T02:12:10.258Z,99916.09
2018-07-27T02:14:40.264Z,99920.18
2018-07-27T02:17:07.409Z,99923.38
2018-07-27T02:19:35.220Z,99926.22
2018-07-27T02:22:02.441Z,99928.12
2018-07-27T02:24:29.508Z,99920.02
2018-07-27T02:26:59.968Z,99926.52
2018-07-27T02:29:26.967Z,99917.80
2018-07-27T02:31:53.980Z,99919.89
2018-07-27T02:34:20.974Z,99921.02
2018-07-27T02:36:48.043Z,99918.14
2018-07-27T02:39:15.116Z,99915.16
2018-07-27T02:41:42.855Z,99915.71
2018-07-27T02:44:09.964Z,99910.81
2018-07-27T02:46:36.972Z,99906.48
2018-07-27T02:49:04.156Z,99908.23
2018-07-27T02:51:31.231Z,99902.95
2018-07-27T02:53:58.789Z,99907.41
2018-07-27T02:56:25.939Z,99901.55
2018-07-27T02:58:52.981Z,99901.89
2018-07-27T03:01:20.007Z,99896.38
2018-07-27T03:03:48.804Z,99892.59
2018-07-27T03:06:17.982Z,99886.28
2018-07-27T03:08:45.109Z,99892.89
2018-07-27T03:11:12.271Z,99884.31
2018-07-27T03:13:45.416Z,99885.64
2018-07-27T03:16:18.653Z,99890.61
2018-07-27T03:18:45.690Z,99891.48
2018-07-27T03:21:13.450Z,99882.91
2018-07-27T03:23:41.364Z,99885.34
2018-07-27T03:26:08.468Z,99894.07
2018-07-27T03:28:36.358Z,99888.69
2018-07-27T03:31:05.489Z,99888.09
2018-07-27T03:33:36.644Z,99892.42
2018-07-27T03:36:05.281Z,99890.00
2018-07-27T03:38:32.420Z,99891.75
2018-07-27T03:40:59.788Z,99890.55
2018-07-27T03:43:26.963Z,99890.55
2018-07-27T03:45:56.937Z,99888.12
2018-07-27T03:48:24.835Z,99884.27
2018-07-27T03:50:52.468Z,99881.92
2018-07-27T03:53:20.381Z,99891.95
2018-07-27T03:55:52.059Z,99885.69
2018-07-27T03:58:19.816Z,99888.81
2018-07-27T04:00:49.946Z,99889.42
2018-07-27T04:03:17.208Z,99893.59
2018-07-27T04:05:44.264Z,99894.41
2018-07-27T04:08:11.340Z,99896.21
2018-07-27T04:10:38.419Z,99901.68
2018-07-27T04:13:05.462Z,99901.67
2018-07-27T04:15:32.554Z,99907.84
2018-07-27T04:18:01.569Z,99905.21
2018-07-27T04:20:29.081Z,99907.84
2018-07-27T04:22:56.196Z,99903.88
2018-07-27T04:25:23.269Z,99904.11
2018-07-27T04:27:50.580Z,99906.25
2018-07-27T04:30:17.685Z,99909.20
2018-07-27T04:32:44.728Z,99913.52
2018-07-27T04:35:12.018Z,99910.94
2018-07-27T04:37:41.109Z,99906.23
2018-07-27T04:40:08.424Z,99905.27
2018-07-27T04:42:35.518Z,99896.66
2018-07-27T04:45:02.586Z,99891.92
2018-07-27T04:47:29.779Z,99899.92
2018-07-27T04:49:56.907Z,99898.69
2018-07-27T04:52:25.961Z,99896.80
2018-07-27T04:54:52.985Z,99897.94
2018-07-27T04:57:22.132Z,99897.73
2018-07-27T04:59:56.258Z,99898.23
2018-07-27T05:02:23.276Z,99901.71
2018-07-27T05:04:50.325Z,99902.78
2018-07-27T05:07:18.384Z,99906.86
2018-07-27T05:09:45.483Z,99912.95
2018-07-27T05:12:13.363Z,99910.17
2018-07-27T05:14:40.376Z,99914.88
2018-07-27T05:17:07.407Z,99910.69
2018-07-27T05:19:34.496Z,99907.25
2018-07-27T05:22:01.601Z,99904.45
2018-07-27T05:24:28.792Z,99905.59
2018-07-27T05:26:56.432Z,99913.11
2018-07-27T05:29:23.611Z,99912.44
2018-07-27T05:31:52.769Z,99916.09
2018-07-27T05:34:20.885Z,99915.23
2018-07-27T05:36:48.924Z,99922.80
2018-07-27T05:39:20.356Z,99917.53
2018-07-27T05:41:47.392Z,99919.24
2018-07-27T05:44:14.460Z,99917.87
2018-07-27T05:46:42.562Z,99912.28
2018-07-27T05:49:09.692Z,99914.77
2018-07-27T05:51:37.364Z,99920.17
2018-07-27T05:54:04.471Z,99924.91
2018-07-27T05:56:31.521Z,99914.27
2018-07-27T05:58:58.700Z,99918.00
2018-07-27T06:01:26.377Z,99923.28
2018-07-27T06:03:53.664Z,99915.88
2018-07-27T06:06:20.734Z,99907.69
2018-07-27T06:08:48.360Z,99914.33
2018-07-27T06:11:15.545Z,99915.58
2018-07-27T06:13:43.659Z,99915.91
2018-07-27T06:16:13.812Z,99922.84
2018-07-27T06:18:41.453Z,99918.09
2018-07-27T06:21:08.513Z,99906.27
2018-07-27T06:23:36.520Z,99915.88
2018-07-27T06:26:04.667Z,99917.53
2018-07-27T06:28:36.624Z,99918.89
2018-07-27T06:31:03.803Z,99912.57
2018-07-27T06:33:31.085Z,99912.50
2018-07-27T06:35:59.893Z,99913.77
2018-07-27T06:38:28.041Z,99908.98
2018-07-27T06:40:55.110Z,99911.45
2018-07-27T06:43:22.240Z,99916.77
2018-07-27T06:45:53.792Z,99918.59
2018-07-27T06:48:21.419Z,99920.18
2018-07-27T06:50:50.743Z,99923.11
2018-07-27T06:53:18.206Z,99920.54
2018-07-27T06:55:46.028Z,99921.32
2018-07-27T06:58:14.146Z,99913.84
2018-07-27T07:00:41.271Z,99926.41
2018-07-27T07:03:08.356Z,99923.66
2018-07-27T07:05:36.040Z,99920.17
2018-07-27T07:08:03.130Z,99923.56
2018-07-27T07:10:33.302Z,99923.56
2018-07-27T07:13:01.019Z,99933.95
2018-07-27T07:15:28.040Z,99932.77
2018-07-27T07:17:55.288Z,99936.27
2018-07-27T07:20:23.374Z,99940.02
2018-07-27T07:22:50.417Z,99937.88
2018-07-27T07:25:17.696Z,99939.70
2018-07-27T07:27:44.666Z,99937.80
2018-07-27T07:30:11.768Z,99929.67
2018-07-27T07:32:39.000Z,99929.89
2018-07-27T07:35:10.090Z,99931.91
2018-07-27T07:37:38.199Z,99928.91
2018-07-27T07:40:07.447Z,99936.19
2018-07-27T07:42:34.548Z,99932.78
2018-07-27T07:45:01.737Z,99930.38
2018-07-27T07:47:28.754Z,99937.05
2018-07-27T07:49:55.837Z,99927.41
2018-07-27T07:52:22.893Z,99928.78
2018-07-27T07:54:50.158Z,99926.09
2018-07-27T07:57:20.345Z,99929.30
2018-07-27T07:59:47.521Z,99927.66
2018-07-27T08:02:16.522Z,99912.45
2018-07-27T08:04:43.580Z,99911.41
2018-07-27T08:07:10.759Z,99916.47
2018-07-27T08:09:40.807Z,99913.29
2018-07-27T08:12:07.968Z,99916.19
2018-07-27T08:14:35.073Z,99912.16
2018-07-27T08:17:03.344Z,99913.72
2018-07-27T08:19:38.824Z,99912.55
2018-07-27T08:22:08.962Z,99909.13
2018-07-27T08:24:36.014Z,99910.27
2018-07-27T08:27:05.163Z,99906.48
2018-07-27T08:29:36.256Z,99908.02
2018-07-27T08:32:03.717Z,99907.19
2018-07-27T08:34:30.799Z,99903.23
2018-07-27T08:36:58.022Z,99904.88
2018-07-27T08:39:26.478Z,99907.22
2018-07-27T08:41:54.664Z,99897.20
2018-07-27T08:44:24.751Z,99895.15
2018-07-27T08:46:52.028Z,99901.66
2018-07-27T08:49:20.506Z,99889.91
2018-07-27T08:51:49.663Z,99890.97
2018-07-27T08:54:17.971Z,99882.31
2018-07-27T08:56:48.276Z,99888.91
2018-07-27T08:59:15.354Z,99874.04
2018-07-27T09:01:42.480Z,99877.33
2018-07-27T09:04:17.075Z,99863.87
2018-07-27T09:06:45.095Z,99866.30
2018-07-27T09:09:14.315Z,99863.78
2018-07-27T09:11:50.287Z,99854.94
2018-07-27T09:14:19.112Z,99861.36
2018-07-27T09:16:46.174Z,99862.41
2018-07-27T09:19:13.269Z,99852.98
2018-07-27T09:21:41.841Z,99853.72
2018-07-27T09:24:09.624Z,99858.28
2018-07-27T09:26:37.579Z,99852.30
2018-07-27T09:29:06.630Z,99857.27
2018-07-27T09:31:34.633Z,99857.08
2018-07-27T09:34:01.774Z,99861.85
2018-07-27T09:36:28.788Z,99856.22
2018-07-27T09:38:55.859Z,99853.12
2018-07-27T09:41:22.961Z,99861.07
2018-07-27T09:43:50.047Z,99861.19
2018-07-27T09:46:18.096Z,99866.16
2018-07-27T09:48:50.772Z,99869.59
2018-07-27T09:51:20.628Z,99861.13
2018-07-27T09:53:47.826Z,99856.59
2018-07-27T09:56:14.927Z,99860.88
2018-07-27T09:58:42.062Z,99857.80
2018-07-27T10:01:15.122Z,99846.15
2018-07-27T10:03:43.669Z,99845.17
2018-07-27T10:06:16.957Z,99856.69
2018-07-27T10:08:44.006Z,99842.10
2018-07-27T10:11:14.724Z,99830.66
2018-07-27T10:13:45.674Z,99834.76
2018-07-27T10:16:12.940Z,99839.53
2018-07-27T10:18:40.011Z,99835.88
2018-07-27T10:21:07.659Z,99836.53
2018-07-27T10:23:34.875Z,99833.73
2018-07-27T10:26:05.169Z,99827.02
2018-07-27T10:28:32.365Z,99832.22
2018-07-27T10:30:59.477Z,99831.70
2018-07-27T10:33:27.616Z,99820.58
2018-07-27T10:35:54.847Z,99824.36
2018-07-27T10:38:22.024Z,99823.91
2018-07-27T10:40:49.136Z,99820.14
2018-07-27T10:43:16.187Z,99823.55
2018-07-27T10:45:43.312Z,99816.47
2018-07-27T10:48:10.520Z,99822.08
2018-07-27T10:50:37.767Z,99815.20
2018-07-27T10:53:05.880Z,99811.98
2018-07-27T10:55:36.726Z,99812.96
2018-07-27T10:58:03.779Z,99806.34
2018-07-27T11:00:40.545Z,99814.53
2018-07-27T11:03:09.058Z,99801.07
2018-07-27T11:05:37.290Z,99791.48
2018-07-27T11:08:07.683Z,99798.61
2018-07-27T11:10:39.410Z,99794.98
2018-07-27T11:13:06.762Z,99795.55
2018-07-27T11:15:34.367Z,99799.80
2018-07-27T11:18:02.484Z,99792.43
2018-07-27T11:20:29.597Z,99785.06
2018-07-27T11:22:56.752Z,99779.34
2018-07-27T11:25:23.856Z,99764.48
2018-07-27T11:27:52.085Z,99772.77
2018-07-27T11:30:19.215Z,99771.61
2018-07-27T11:32:46.479Z,99766.03
2018-07-27T11:35:20.780Z,99766.49
2018-07-27T11:37:56.196Z,99758.34
2018-07-27T11:40:23.395Z,99759.98
2018-07-27T11:42:53.282Z,99757.61
2018-07-27T11:45:21.304Z,99757.73
2018-07-27T11:47:48.406Z,99758.27
2018-07-27T11:50:22.367Z,99755.84
2018-07-27T11:52:51.343Z,99748.13
2018-07-27T11:55:18.620Z,99744.30
2018-07-27T11:57:45.887Z,99744.39
2018-07-27T12:00:13.761Z,99742.42
2018-07-27T12:02:40.941Z,99734.01
2018-07-27T12:05:11.745Z,99723.66
2018-07-27T12:07:39.830Z,99738.17
2018-07-27T12:10:10.414Z,99724.20
2018-07-27T12:12:37.454Z,99719.47
2018-07-27T12:15:04.990Z,99712.92
2018-07-27T12:17:31.911Z,99707.41
2018-07-27T12:20:00.135Z,99708.72
2018-07-27T12:24:54.611Z,99695.77
2018-07-27T12:27:25.424Z,99688.72
2018-07-27T12:29:55.585Z,99697.85
2018-07-27T12:32:23.815Z,99698.39
2018-07-27T12:34:50.927Z,99697.59
2018-07-27T12:37:19.436Z,99704.06
2018-07-27T12:39:46.599Z,99689.64
2018-07-27T12:42:13.804Z,99686.65
2018-07-27T12:44:40.971Z,99691.39
2018-07-27T12:47:10.611Z,99687.82
2018-07-27T12:49:37.792Z,99677.80
2018-07-27T12:52:05.141Z,99683.55
2018-07-27T12:54:32.330Z,99683.52
2018-07-27T12:56:59.592Z,99671.77
2018-07-27T12:59:26.723Z,99674.14
2018-07-27T13:01:54.754Z,99673.98
2018-07-27T13:04:26.234Z,99671.30
2018-07-27T13:06:53.415Z,99678.33
2018-07-27T13:09:21.531Z,99672.55
2018-07-27T13:11:50.233Z,99671.12
2018-07-27T13:14:23.640Z,99665.63
2018-07-27T13:16:50.818Z,99670.45
2018-07-27T13:19:17.915Z,99652.64
2018-07-27T13:21:45.094Z,99647.38
2018-07-27T13:24:12.138Z,99645.73
2018-07-27T13:26:39.303Z,99655.48
2018-07-27T13:29:06.494Z,99645.53
2018-07-27T13:34:36.008Z,99645.65
2018-07-27T13:37:04.278Z,99638.01
2018-07-27T13:39:32.973Z,99631.16
2018-07-27T13:42:04.034Z,99628.58
2018-07-27T13:44:34.079Z,99621.84
2018-07-27T13:47:01.659Z,99615.29
2018-07-27T13:49:28.773Z,99603.91
2018-07-27T13:51:56.367Z,99618.25
2018-07-27T13:54:24.613Z,99611.08
2018-07-27T13:56:54.691Z,99611.30
2018-07-27T13:59:25.000Z,99607.47
2018-07-27T14:01:55.112Z,99598.19
2018-07-27T14:04:22.382Z,99596.84
2018-07-27T14:06:51.056Z,99586.19
2018-07-27T14:09:18.157Z,99587.23
2018-07-27T14:11:45.587Z,99588.09
2018-07-27T14:14:12.957Z,99591.76
2018-07-27T14:16:40.773Z,99592.25
2018-07-27T14:19:08.056Z,99594.97
2018-07-27T14:21:38.257Z,99585.70
2018-07-27T14:24:05.381Z,99584.81
2018-07-27T14:26:33.482Z,99577.68
2018-07-27T14:29:00.620Z,99578.52
2018-07-27T14:31:27.854Z,99579.42
2018-07-27T14:33:55.080Z,99577.30
2018-07-27T14:36:23.208Z,99574.70
2018-07-27T14:38:50.588Z,99570.56
2018-07-27T14:41:18.158Z,99569.41
2018-07-27T14:43:45.308Z,99569.98
2018-07-27T14:46:12.445Z,99556.19
2018-07-27T14:48:39.727Z,99555.53
2018-07-27T14:51:08.097Z,99562.40
2018-07-27T14:53:35.770Z,99555.34
2018-07-27T14:56:03.234Z,99555.55
2018-07-27T14:58:33.594Z,99555.80
2018-07-27T15:01:00.715Z,99551.92
2018-07-27T15:03:28.826Z,99543.17
2018-07-27T15:05:56.955Z,99539.41
2018-07-27T15:08:27.978Z,99539.72
2018-07-27T15:10:55.228Z,99545.93
2018-07-27T15:13:22.452Z,99542.23
2018-07-27T15:15:51.495Z,99542.11
2018-07-27T15:18:20.348Z,99541.14
2018-07-27T15:20:47.592Z,99528.99
2018-07-27T15:23:25.782Z,99526.66
2018-07-27T15:25:55.995Z,99530.14
2018-07-27T15:28:23.232Z,99519.00
2018-07-27T15:30:50.599Z,99522.23
2018-07-27T15:33:17.810Z,99511.69
2018-07-27T15:35:44.988Z,99515.55
2018-07-27T15:38:13.151Z,99522.20
2018-07-27T15:40:41.287Z,99517.24
2018-07-27T15:43:09.449Z,99517.12
2018-07-27T15:45:36.624Z,99523.89
2018-07-27T15:48:03.818Z,99511.58
2018-07-27T15:50:31.968Z,99516.16
2018-07-27T15:52:59.974Z,99508.02
2018-07-27T15:55:30.200Z,99501.83
2018-07-27T15:57:57.955Z,99506.02
2018-07-27T16:00:25.233Z,99501.84
2018-07-27T16:02:52.493Z,99506.05
2018-07-27T16:05:20.873Z,99506.52
2018-07-27T16:07:48.103Z,99498.05
2018-07-27T16:10:15.349Z,99496.31
2018-07-27T16:12:42.806Z,99493.83
2018-07-27T16:15:12.040Z,99484.13
2018-07-27T16:17:39.912Z,99483.84
2018-07-27T16:20:07.115Z,99486.75
2018-07-27T16:22:34.397Z,99483.42
2018-07-27T16:25:01.844Z,99481.75
2018-07-27T16:27:30.280Z,99486.19
2018-07-27T16:29:57.496Z,99483.34
2018-07-27T16:32:24.794Z,99482.63
2018-07-27T16:34:51.893Z,99474.33
2018-07-27T16:37:19.916Z,99470.98
2018-07-27T16:39:47.146Z,99468.30
2018-07-27T16:42:14.453Z,99471.67
2018-07-27T16:44:41.649Z,99474.90
2018-07-27T16:47:08.834Z,99470.63
2018-07-27T16:49:36.997Z,99471.10
2018-07-27T16:52:04.135Z,99469.47
2018-07-27T16:54:32.203Z,99461.95
2018-07-27T16:56:59.348Z,99463.61
2018-07-27T16:59:26.515Z,99463.14
2018-07-27T17:01:53.749Z,99462.35
2018-07-27T17:04:20.891Z,99460.51
2018-07-27T17:06:48.307Z,99461.26
2018-07-27T17:09:15.481Z,99462.97
2018-07-27T17:11:42.562Z,99458.30
2018-07-27T17:14:09.757Z,99456.02
2018-07-27T17:16:37.032Z,99452.89
2018-07-27T17:19:06.059Z,99449.50
2018-07-27T17:21:34.141Z,99454.84
2018-07-27T17:24:01.267Z,99460.06
2018-07-27T17:26:28.984Z,99451.86
2018-07-27T17:28:56.112Z,99448.25
2018-07-27T17:31:24.339Z,99458.33
2018-07-27T17:33:53.055Z,99458.95
2018-07-27T17:36:20.315Z,99457.55
2018-07-27T17:38:48.084Z,99450.88
2018-07-27T17:41:15.937Z,99456.77
2018-07-27T17:43:43.069Z,99454.61
2018-07-27T17:46:10.257Z,99452.75
2018-07-27T17:48:37.472Z,99448.58
2018-07-27T17:51:07.740Z,99448.15
2018-07-27T17:53:35.025Z,99448.36
2018-07-27T17:56:02.308Z,99451.33
2018-07-27T17:58:29.494Z,99452.89
2018-07-27T18:00:56.605Z,99446.38
2018-07-27T18:03:23.816Z,99450.80
2018-07-27T18:05:50.989Z,99447.87
2018-07-27T18:08:18.183Z,99445.21
2018-07-27T18:10:45.419Z,99442.45
2018-07-27T18:13:12.677Z,99453.98
2018-07-27T18:15:40.184Z,99452.88
2018-07-27T18:18:07.374Z,99451.00
2018-07-27T18:20:34.447Z,99451.84
2018-07-27T18:23:01.657Z,99450.63
2018-07-27T18:25:35.260Z,99449.66
2018-07-27T18:28:02.416Z,99456.16
2018-07-27T18:30:29.653Z,99457.89
2018-07-27T18:32:56.640Z,99459.37
2018-07-27T18:35:23.844Z,99453.05
2018-07-27T18:37:52.062Z,99452.83
2018-07-27T18:40:20.208Z,99464.70
2018-07-27T18:42:47.378Z,99453.03
2018-07-27T18:45:15.572Z,99453.46
2018-07-27T18:47:42.673Z,99461.13
2018-07-27T18:50:11.941Z,99465.08
2018-07-27T18:52:45.367Z,99466.76
2018-07-27T18:55:13.462Z,99469.00
2018-07-27T18:57:40.613Z,99463.32
2018-07-27T19:00:07.827Z,99464.56
2018-07-27T19:02:34.961Z,99462.11
2018-07-27T19:05:05.309Z,99460.77
2018-07-27T19:07:36.524Z,99465.22
2018-07-27T19:10:04.567Z,99456.86
2018-07-27T19:12:35.108Z,99459.76
2018-07-27T19:15:08.960Z,99468.54
2018-07-27T19:17:36.447Z,99465.85
2018-07-27T19:20:04.452Z,99474.39
2018-07-27T19:22:31.537Z,99478.84
2018-07-27T19:25:02.705Z,99477.84
2018-07-27T19:27:30.499Z,99473.89
2018-07-27T19:29:57.743Z,99479.49
2018-07-27T19:32:25.498Z,99477.34
2018-07-27T19:34:53.630Z,99476.75
2018-07-27T19:37:22.612Z,99486.16
2018-07-27T19:39:49.770Z,99487.45
2018-07-27T19:42:17.970Z,99483.19
2018-07-27T19:44:49.094Z,99495.19
2018-07-27T19:47:20.073Z,99490.56
2018-07-27T19:49:47.165Z,99491.81
2018-07-27T19:52:17.289Z,99496.34
2018-07-27T19:54:44.325Z,99494.16
2018-07-27T19:57:11.413Z,99496.81
2018-07-27T19:59:39.819Z,99495.67
2018-07-27T20:02:08.651Z,99497.42
2018-07-27T20:04:35.874Z,99499.39
2018-07-27T20:07:06.700Z,99505.27
2018-07-27T20:09:34.628Z,99506.40
2018-07-27T20:12:06.581Z,99499.95
2018-07-27T20:14:35.695Z,99500.08
2018-07-27T20:17:02.951Z,99510.00
2018-07-27T20:19:30.983Z,99505.27
2018-07-27T20:22:00.008Z,99499.86
2018-07-27T20:24:31.790Z,99502.39
2018-07-27T20:26:59.056Z,99499.35
2018-07-27T20:29:26.274Z,99501.81
2018-07-27T20:31:53.545Z,99500.27
2018-07-27T20:34:21.477Z,99499.23
2018-07-27T20:36:48.589Z,99499.08
2018-07-27T20:39:16.451Z,99497.74
2018-07-27T20:41:44.367Z,99495.02
2018-07-27T20:44:11.748Z,99502.43
2018-07-27T20:46:40.653Z,99503.95
2018-07-27T20:49:08.315Z,99497.59
2018-07-27T20:51:35.554Z,99498.80
2018-07-27T20:54:05.020Z,99497.80
2018-07-27T20:56:32.237Z,99499.08
2018-07-27T20:58:59.344Z,99496.15
2018-07-27T21:01:26.472Z,99495.75
2018-07-27T21:03:53.552Z,99500.45
2018-07-27T21:06:20.719Z,99504.91
2018-07-27T21:08:48.457Z,99493.33
2018-07-27T21:11:15.702Z,99494.90
2018-07-27T21:13:42.900Z,99496.77
2018-07-27T21:16:11.565Z,99498.25
2018-07-27T21:18:39.713Z,99489.93
2018-07-27T21:21:07.527Z,99496.95
2018-07-27T21:23:34.625Z,99497.55
2018-07-27T21:26:02.521Z,99503.83
2018-07-27T21:28:29.573Z,99503.69
2018-07-27T21:30:57.539Z,99501.09
2018-07-27T21:33:25.200Z,99502.31
2018-07-27T21:35:55.330Z,99498.66
2018-07-27T21:38:22.345Z,99500.34
2018-07-27T21:40:49.488Z,99503.34
2018-07-27T21:43:16.517Z,99500.55
2018-07-27T21:45:43.656Z,99498.19
2018-07-27T21:48:10.674Z,99491.78
2018-07-27T21:50:38.723Z,99486.38
2018-07-27T21:53:05.896Z,99491.41
2018-07-27T21:55:33.011Z,99490.63
2018-07-27T21:58:00.177Z,99485.06
2018-07-27T22:00:27.295Z,99487.91
2018-07-27T22:02:54.452Z,99485.61
2018-07-27T22:05:23.080Z,99490.27
2018-07-27T22:07:53.458Z,99488.66
2018-07-27T22:10:20.585Z,99482.49
2018-07-27T22:12:47.758Z,99481.28
2018-07-27T22:15:23.422Z,99483.73
2018-07-27T22:17:53.530Z,99480.48
2018-07-27T22:20:21.913Z,99481.86
2018-07-27T22:22:49.619Z,99483.73
2018-07-27T22:25:19.723Z,99482.49
2018-07-27T22:27:52.141Z,99484.38
2018-07-27T22:30:24.175Z,99483.22
2018-07-27T22:32:54.115Z,99486.69
2018-07-27T22:35:21.229Z,99487.02
2018-07-27T22:37:53.087Z,99493.73
2018-07-27T22:40:22.629Z,99484.31
2018-07-27T22:42:49.680Z,99485.59
2018-07-27T22:45:16.783Z,99490.61
2018-07-27T22:47:43.841Z,99486.73
2018-07-27T22:50:12.980Z,99496.38
2018-07-27T22:52:44.015Z,99490.32
2018-07-27T22:55:14.069Z,99492.88
2018-07-27T22:57:49.495Z,99494.80
2018-07-27T23:00:21.608Z,99491.42
2018-07-27T23:02:48.624Z,99492.45
2018-07-27T23:05:15.674Z,99487.12
2018-07-27T23:07:42.775Z,99485.94
2018-07-27T23:10:10.370Z,99485.75
2018-07-27T23:12:39.788Z,99490.37
2018-07-27T23:15:08.534Z,99477.86
2018-07-27T23:17:35.715Z,99474.98
2018-07-27T23:20:04.448Z,99471.02
2018-07-27T23:22:31.529Z,99469.98
2018-07-27T23:24:58.589Z,99467.62
2018-07-27T23:27:25.701Z,99465.41
2018-07-27T23:29:53.838Z,99458.94
2018-07-27T23:32:22.661Z,99460.55
2018-07-27T23:34:54.587Z,99452.84
2018-07-27T23:37:24.713Z,99459.68
2018-07-27T23:39:51.817Z,99456.75
2018-07-27T23:42:19.320Z,99450.72
2018-07-27T23:44:47.143Z,99454.16
2018-07-27T23:47:16.873Z,99454.01
2018-07-27T23:49:43.885Z,99446.80
2018-07-27T23:52:11.614Z,99448.49
2018-07-27T23:54:39.710Z,99449.83
2018-07-27T23:57:10.664Z,99448.85
2018-07-27T23:59:38.753Z,99446.80
